createdAt,value
2023-02-09T00:01:22.217Z,48.92
2023-02-09T00:03:49.696Z,41.25
2023-02-09T00:06:19.531Z,48.53
2023-02-09T00:08:47.006Z,46.72
2023-02-09T00:11:46.720Z,46.45
2023-02-09T00:14:16.663Z,45.50
2023-02-09T00:16:44.844Z,46.67
2023-02-09T00:19:13.269Z,45.20
2023-02-09T00:21:41.230Z,51.97
2023-02-09T00:24:10.867Z,45.33
2023-02-09T00:26:39.196Z,38.33
2023-02-09T00:29:08.390Z,42.85
2023-02-09T00:31:36.169Z,44.22
2023-02-09T00:34:05.050Z,48.67
2023-02-09T00:36:33.393Z,42.63
2023-02-09T00:39:01.581Z,48.63
2023-02-09T00:41:47.705Z,45.38
2023-02-09T00:44:14.967Z,46.58
2023-02-09T00:46:42.810Z,42.80
2023-02-09T00:49:10.132Z,43.83
2023-02-09T00:51:37.793Z,44.60
2023-02-09T00:54:05.192Z,39.47
2023-02-09T00:56:32.825Z,43.50
2023-02-09T00:59:00.443Z,41.42
2023-02-09T01:01:28.219Z,39.88
2023-02-09T01:03:56.202Z,42.83
2023-02-09T01:06:23.785Z,43.28
2023-02-09T01:08:51.082Z,42.25
2023-02-09T01:11:18.852Z,37.45
2023-02-09T01:13:47.259Z,38.97
2023-02-09T01:16:17.876Z,40.33
2023-02-09T01:18:45.761Z,42.92
2023-02-09T01:21:15.641Z,37.85
2023-02-09T01:23:43.179Z,38.50
2023-02-09T01:26:12.428Z,32.42
2023-02-09T01:28:40.107Z,34.40
2023-02-09T01:31:31.277Z,35.67
2023-02-09T01:34:00.983Z,38.08
2023-02-09T01:36:30.731Z,39.03
2023-02-09T01:38:59.800Z,38.53
2023-02-09T01:41:27.724Z,41.80
2023-02-09T01:43:54.967Z,36.33
2023-02-09T01:46:25.270Z,41.90
2023-02-09T01:48:59.346Z,41.58
2023-02-09T01:51:28.402Z,38.33
2023-02-09T01:53:58.063Z,40.72
2023-02-09T01:56:30.954Z,39.67
2023-02-09T01:58:59.099Z,40.45
2023-02-09T02:01:27.580Z,42.78
2023-02-09T02:03:54.898Z,48.45
2023-02-09T02:06:22.541Z,43.95
2023-02-09T02:08:55.456Z,50.28
2023-02-09T02:11:27.525Z,47.70
2023-02-09T02:13:54.808Z,51.63
2023-02-09T02:16:51.738Z,53.85
2023-02-09T02:19:43.229Z,58.63
2023-02-09T02:22:10.712Z,59.05
2023-02-09T02:24:50.913Z,62.55
2023-02-09T02:27:29.234Z,54.47
2023-02-09T02:30:13.373Z,56.60
2023-02-09T02:32:48.581Z,54.30
2023-02-09T02:35:34.191Z,56.10
2023-02-09T02:38:15.774Z,51.17
2023-02-09T02:41:14.796Z,45.45
2023-02-09T02:44:07.565Z,57.47
2023-02-09T02:47:03.517Z,59.58
2023-02-09T02:49:53.987Z,59.20
2023-02-09T02:52:21.508Z,59.38
2023-02-09T02:54:58.745Z,60.15
2023-02-09T02:57:30.784Z,55.78
2023-02-09T03:00:04.890Z,61.80
2023-02-09T03:02:40.126Z,62.92
2023-02-09T03:05:09.644Z,65.85
2023-02-09T03:07:37.065Z,64.47
2023-02-09T03:10:29.296Z,59.88
2023-02-09T03:13:15.314Z,58.50
2023-02-09T03:15:58.075Z,60.40
2023-02-09T03:19:06.927Z,69.65
2023-02-09T03:22:06.268Z,59.67
2023-02-09T03:24:51.927Z,65.97
2023-02-09T03:27:25.240Z,65.72
2023-02-09T03:30:04.357Z,64.90
2023-02-09T03:32:36.852Z,64.03
2023-02-09T03:35:05.388Z,62.13
2023-02-09T03:37:32.954Z,59.55
2023-02-09T03:40:00.336Z,60.92
2023-02-09T03:42:27.955Z,62.25
2023-02-09T03:44:55.186Z,66.47
2023-02-09T03:47:22.788Z,65.63
2023-02-09T03:49:50.053Z,64.65
2023-02-09T03:52:18.120Z,58.08
2023-02-09T03:54:45.438Z,59.97
2023-02-09T03:57:12.966Z,70.82
2023-02-09T03:59:40.491Z,61.60
2023-02-09T04:02:09.778Z,70.40
2023-02-09T04:04:37.612Z,66.57
2023-02-09T04:07:05.275Z,71.43
2023-02-09T04:09:32.845Z,73.25
2023-02-09T04:12:00.384Z,68.00
2023-02-09T04:14:27.662Z,68.13
2023-02-09T04:16:55.210Z,71.10
2023-02-09T04:19:22.570Z,70.15
2023-02-09T04:21:50.174Z,69.22
2023-02-09T04:24:26.683Z,67.72
2023-02-09T04:26:54.231Z,68.32
2023-02-09T04:29:21.501Z,76.45
2023-02-09T04:31:49.100Z,69.93
2023-02-09T04:34:16.466Z,69.68
2023-02-09T04:36:44.387Z,74.03
2023-02-09T04:39:11.633Z,70.30
2023-02-09T04:41:39.250Z,70.93
2023-02-09T04:44:06.515Z,72.88
2023-02-09T04:46:34.526Z,71.55
2023-02-09T04:49:01.772Z,72.75
2023-02-09T04:51:29.344Z,66.82
2023-02-09T04:53:56.696Z,62.35
2023-02-09T04:56:24.249Z,56.13
2023-02-09T04:59:10.029Z,48.60
2023-02-09T05:01:37.695Z,52.70
2023-02-09T05:04:04.922Z,44.95
2023-02-09T05:06:32.444Z,54.72
2023-02-09T05:08:59.746Z,52.90
2023-02-09T05:11:27.351Z,49.45
2023-02-09T05:13:55.924Z,55.65
2023-02-09T05:16:23.526Z,56.25
2023-02-09T05:18:51.218Z,48.75
2023-02-09T05:21:18.947Z,51.17
2023-02-09T05:23:46.199Z,46.67
2023-02-09T05:26:13.877Z,48.42
2023-02-09T05:28:41.256Z,51.70
2023-02-09T05:31:08.907Z,47.83
2023-02-09T05:33:36.245Z,45.80
2023-02-09T05:36:09.330Z,46.40
2023-02-09T05:38:37.024Z,47.17
2023-02-09T05:41:32.825Z,47.47
2023-02-09T05:44:00.150Z,50.15
2023-02-09T05:46:27.765Z,53.10
2023-02-09T05:48:55.085Z,46.92
2023-02-09T05:51:22.635Z,45.63
2023-02-09T05:53:52.236Z,45.97
2023-02-09T05:56:20.177Z,48.03
2023-02-09T05:58:47.391Z,55.65
2023-02-09T06:01:14.934Z,47.30
2023-02-09T06:03:42.345Z,50.75
2023-02-09T06:06:10.029Z,53.70
2023-02-09T06:08:37.304Z,49.03
2023-02-09T06:11:06.258Z,45.42
2023-02-09T06:13:33.573Z,45.55
2023-02-09T06:16:01.188Z,53.00
2023-02-09T06:18:28.411Z,48.97
2023-02-09T06:20:57.216Z,48.58
2023-02-09T06:23:24.482Z,49.80
2023-02-09T06:25:53.317Z,51.65
2023-02-09T06:28:21.081Z,54.75
2023-02-09T06:30:53.824Z,52.78
2023-02-09T06:33:21.161Z,55.13
2023-02-09T06:35:50.819Z,48.97
2023-02-09T06:38:20.118Z,50.67
2023-02-09T06:40:47.878Z,56.05
2023-02-09T06:43:15.515Z,58.72
2023-02-09T06:45:43.276Z,63.80
2023-02-09T06:48:10.572Z,56.20
2023-02-09T06:50:39.377Z,57.75
2023-02-09T06:53:06.860Z,63.78
2023-02-09T06:55:34.954Z,73.15
2023-02-09T06:58:02.805Z,63.70
2023-02-09T07:00:31.695Z,59.40
2023-02-09T07:02:59.604Z,61.95
2023-02-09T07:05:27.408Z,65.68
2023-02-09T07:07:56.579Z,60.75
2023-02-09T07:10:24.263Z,62.70
2023-02-09T07:12:51.674Z,62.92
2023-02-09T07:15:19.311Z,62.40
2023-02-09T07:17:46.640Z,62.80
2023-02-09T07:20:14.326Z,57.83
2023-02-09T07:22:41.788Z,56.25
2023-02-09T07:25:09.431Z,56.05
2023-02-09T07:27:36.728Z,54.67
2023-02-09T07:30:04.568Z,51.42
2023-02-09T07:32:32.825Z,47.05
2023-02-09T07:35:00.374Z,52.20
2023-02-09T07:37:27.789Z,52.20
2023-02-09T07:39:55.504Z,46.40
2023-02-09T07:42:23.471Z,50.35
2023-02-09T07:44:57.785Z,46.10
2023-02-09T07:47:25.033Z,49.83
2023-02-09T07:49:52.583Z,55.40
2023-02-09T07:52:19.837Z,52.38
2023-02-09T07:54:50.586Z,61.47
2023-02-09T07:57:17.837Z,54.88
2023-02-09T07:59:45.384Z,60.05
2023-02-09T08:02:19.183Z,59.97
2023-02-09T08:04:47.038Z,61.17
2023-02-09T08:07:14.332Z,56.15
2023-02-09T08:09:45.110Z,57.35
2023-02-09T08:12:12.613Z,62.30
2023-02-09T08:14:48.236Z,62.75
2023-02-09T08:17:28.002Z,58.80
2023-02-09T08:20:06.784Z,67.43
2023-02-09T08:22:38.794Z,59.58
2023-02-09T08:25:06.578Z,52.13
2023-02-09T08:27:35.555Z,51.47
2023-02-09T08:30:03.997Z,57.35
2023-02-09T08:32:31.379Z,52.50
2023-02-09T08:34:58.899Z,53.03
2023-02-09T08:37:26.107Z,47.08
2023-02-09T08:39:54.284Z,46.95
2023-02-09T08:42:21.533Z,46.05
2023-02-09T08:44:49.124Z,50.83
2023-02-09T08:47:16.765Z,53.97
2023-02-09T08:49:44.311Z,54.13
2023-02-09T08:52:11.557Z,51.88
2023-02-09T08:54:39.228Z,54.97
2023-02-09T08:57:06.470Z,53.30
2023-02-09T08:59:34.350Z,55.30
2023-02-09T09:02:01.597Z,59.03
2023-02-09T09:04:29.659Z,56.85
2023-02-09T09:06:57.013Z,50.72
2023-02-09T09:09:24.685Z,52.00
2023-02-09T09:11:52.063Z,57.13
2023-02-09T09:14:19.604Z,53.30
2023-02-09T09:16:47.000Z,55.60
2023-02-09T09:19:14.611Z,54.25
2023-02-09T09:21:41.919Z,49.63
2023-02-09T09:24:09.557Z,51.67
2023-02-09T09:26:36.895Z,41.00
2023-02-09T09:29:04.473Z,38.20
2023-02-09T09:31:33.604Z,34.72
2023-02-09T09:34:01.253Z,45.83
2023-02-09T09:36:28.484Z,40.05
2023-02-09T09:38:56.611Z,36.90
2023-02-09T09:41:30.162Z,40.40
2023-02-09T09:43:58.901Z,48.33
2023-02-09T09:46:48.574Z,50.45
2023-02-09T09:49:28.329Z,43.00
2023-02-09T09:52:04.587Z,42.83
2023-02-09T09:54:34.686Z,42.35
2023-02-09T09:57:02.893Z,41.22
2023-02-09T09:59:37.604Z,42.45
2023-02-09T10:02:23.613Z,39.97
2023-02-09T10:04:51.485Z,39.13
2023-02-09T10:07:23.596Z,41.17
2023-02-09T10:10:02.583Z,44.47
2023-02-09T10:12:37.024Z,43.13
2023-02-09T10:15:28.183Z,41.67
2023-02-09T10:17:56.907Z,45.40
2023-02-09T10:20:45.061Z,40.30
2023-02-09T10:23:19.343Z,36.13
2023-02-09T10:25:53.498Z,43.92
2023-02-09T10:28:26.003Z,36.88
2023-02-09T10:30:56.554Z,40.72
2023-02-09T10:33:24.671Z,42.30
2023-02-09T10:35:55.268Z,41.45
2023-02-09T10:38:27.965Z,41.72
2023-02-09T10:40:55.620Z,41.95
2023-02-09T10:43:28.389Z,38.47
2023-02-09T10:46:13.345Z,39.50
2023-02-09T10:48:43.319Z,39.58
2023-02-09T10:51:29.408Z,42.08
2023-02-09T10:54:04.631Z,42.47
2023-02-09T10:56:47.692Z,38.80
2023-02-09T10:59:25.852Z,35.83
2023-02-09T11:01:59.658Z,39.38
2023-02-09T11:04:31.107Z,37.88
2023-02-09T11:07:02.435Z,38.00
2023-02-09T11:09:34.662Z,42.07
2023-02-09T11:12:03.073Z,36.55
2023-02-09T11:14:30.396Z,39.05
2023-02-09T11:17:19.232Z,37.97
2023-02-09T11:19:52.513Z,40.53
2023-02-09T11:22:38.531Z,45.03
2023-02-09T11:25:34.239Z,37.83
2023-02-09T11:28:23.133Z,40.20
2023-02-09T11:31:38.924Z,47.90
2023-02-09T11:34:12.439Z,44.45
2023-02-09T11:37:06.424Z,46.38
2023-02-09T11:40:06.400Z,48.60
2023-02-09T11:42:44.449Z,48.00
2023-02-09T11:45:30.219Z,50.55
2023-02-09T11:47:58.339Z,49.60
2023-02-09T11:50:41.505Z,49.50
2023-02-09T11:53:36.579Z,47.97
2023-02-09T11:56:07.953Z,43.33
2023-02-09T11:59:06.092Z,47.97
2023-02-09T12:01:51.014Z,42.35
2023-02-09T12:04:26.509Z,38.67
2023-02-09T12:07:10.654Z,49.50
2023-02-09T12:09:38.030Z,43.65
2023-02-09T12:12:36.039Z,42.85
2023-02-09T12:15:03.218Z,48.28
2023-02-09T12:17:42.967Z,48.08
2023-02-09T12:20:26.260Z,45.85
2023-02-09T12:23:01.180Z,44.88
2023-02-09T12:25:51.571Z,44.30
2023-02-09T12:28:25.478Z,48.33
2023-02-09T12:30:52.831Z,44.45
2023-02-09T12:33:32.187Z,45.15
2023-02-09T12:36:02.385Z,45.58
2023-02-09T12:39:07.878Z,45.85
2023-02-09T12:41:35.107Z,44.13
2023-02-09T12:44:11.919Z,41.50
2023-02-09T12:46:45.450Z,49.03
2023-02-09T12:49:13.754Z,46.58
2023-02-09T12:51:40.945Z,44.58
2023-02-09T12:54:27.301Z,39.30
2023-02-09T12:56:54.887Z,41.58
2023-02-09T12:59:25.727Z,40.78
2023-02-09T13:02:08.022Z,41.20
2023-02-09T13:04:40.881Z,38.15
2023-02-09T13:07:30.105Z,36.00
2023-02-09T13:10:00.806Z,40.40
2023-02-09T13:12:39.277Z,39.00
2023-02-09T13:15:14.549Z,40.50
2023-02-09T13:18:02.641Z,36.53
2023-02-09T13:21:14.173Z,39.17
2023-02-09T13:23:50.341Z,39.47
2023-02-09T13:26:31.260Z,41.28
2023-02-09T13:29:22.171Z,41.95
2023-02-09T13:32:15.186Z,41.83
2023-02-09T13:34:52.830Z,41.15
2023-02-09T13:37:46.786Z,36.97
2023-02-09T13:40:23.148Z,36.80
2023-02-09T13:42:53.144Z,37.95
2023-02-09T13:45:23.338Z,35.85
2023-02-09T13:47:51.623Z,43.92
2023-02-09T13:50:22.240Z,38.92
2023-02-09T13:52:52.634Z,34.60
2023-02-09T13:55:27.500Z,38.65
2023-02-09T13:58:04.899Z,42.00
2023-02-09T14:00:41.664Z,48.42
2023-02-09T14:03:17.929Z,42.88
2023-02-09T14:06:28.173Z,46.47
2023-02-09T14:08:59.972Z,43.58
2023-02-09T14:12:02.675Z,44.08
2023-02-09T14:14:59.891Z,44.80
2023-02-09T14:17:30.969Z,42.13
2023-02-09T14:20:00.293Z,42.35
2023-02-09T14:22:35.964Z,44.78
2023-02-09T14:25:22.815Z,46.00
2023-02-09T14:27:50.458Z,44.70
2023-02-09T14:30:26.649Z,43.58
2023-02-09T14:32:55.897Z,43.38
2023-02-09T14:35:28.945Z,47.22
2023-02-09T14:37:59.668Z,44.83
2023-02-09T14:40:27.183Z,43.40
2023-02-09T14:43:11.263Z,47.67
2023-02-09T14:45:43.377Z,45.45
2023-02-09T14:48:18.691Z,45.75
2023-02-09T14:50:48.666Z,45.50
2023-02-09T14:53:17.520Z,46.33
2023-02-09T14:55:45.707Z,51.60
2023-02-09T14:58:29.249Z,48.70
2023-02-09T15:00:59.929Z,44.55
2023-02-09T15:03:27.545Z,46.67
2023-02-09T15:06:02.392Z,51.60
2023-02-09T15:08:32.457Z,45.80
2023-02-09T15:11:03.315Z,45.50
2023-02-09T15:13:33.120Z,48.45
2023-02-09T15:16:00.694Z,45.92
2023-02-09T15:18:28.130Z,48.22
2023-02-09T15:20:55.780Z,46.90
2023-02-09T15:23:23.047Z,48.03
2023-02-09T15:25:50.726Z,45.80
2023-02-09T15:28:28.742Z,51.30
2023-02-09T15:30:59.187Z,53.50
2023-02-09T15:33:27.562Z,48.03
2023-02-09T15:35:58.848Z,50.45
2023-02-09T15:38:27.800Z,46.92
2023-02-09T15:41:14.453Z,47.42
2023-02-09T15:44:00.523Z,45.35
2023-02-09T15:46:46.746Z,48.53
2023-02-09T15:49:14.026Z,52.17
2023-02-09T15:51:42.375Z,45.83
2023-02-09T15:54:20.142Z,56.10
2023-02-09T15:56:49.294Z,50.38
2023-02-09T15:59:20.609Z,51.70
2023-02-09T16:01:48.856Z,54.17
2023-02-09T16:04:16.826Z,52.83
2023-02-09T16:06:48.595Z,55.42
2023-02-09T16:09:22.407Z,37.67
2023-02-09T16:11:50.115Z,48.38
2023-02-09T16:14:23.133Z,56.63
2023-02-09T16:16:51.340Z,47.72
2023-02-09T16:19:19.486Z,48.65
2023-02-09T16:21:51.823Z,51.40
2023-02-09T16:24:29.072Z,50.47
2023-02-09T16:27:00.083Z,46.85
2023-02-09T16:29:27.618Z,50.60
2023-02-09T16:31:55.289Z,47.67
2023-02-09T16:34:22.575Z,44.35
2023-02-09T16:36:50.472Z,49.70
2023-02-09T16:39:22.185Z,44.85
2023-02-09T16:44:27.097Z,43.95
2023-02-09T16:46:57.248Z,44.17
2023-02-09T16:49:33.628Z,42.88
2023-02-09T16:52:04.851Z,44.35
2023-02-09T16:54:39.971Z,39.60
2023-02-09T16:57:10.995Z,35.70
2023-02-09T16:59:38.406Z,40.28
2023-02-09T17:02:28.323Z,38.60
2023-02-09T17:04:55.824Z,37.42
2023-02-09T17:07:30.152Z,43.10
2023-02-09T17:09:57.713Z,37.22
2023-02-09T17:12:25.954Z,42.38
2023-02-09T17:14:53.463Z,38.55
2023-02-09T17:17:22.598Z,38.50
2023-02-09T17:19:51.205Z,36.58
2023-02-09T17:22:19.324Z,41.05
2023-02-09T17:24:48.078Z,39.80
2023-02-09T17:27:15.731Z,40.05
2023-02-09T17:29:44.012Z,44.75
2023-02-09T17:32:15.825Z,36.53
2023-02-09T17:34:43.214Z,39.85
2023-02-09T17:37:14.878Z,40.17
2023-02-09T17:39:42.181Z,34.90
2023-02-09T17:42:21.052Z,38.60
2023-02-09T17:44:48.730Z,36.85
2023-02-09T17:47:21.634Z,34.88
2023-02-09T17:49:53.175Z,35.40
2023-02-09T17:52:21.299Z,37.58
2023-02-09T17:54:49.504Z,38.95
2023-02-09T17:57:17.815Z,34.20
2023-02-09T17:59:46.915Z,40.47
2023-02-09T18:02:19.825Z,34.13
2023-02-09T18:04:47.235Z,33.22
2023-02-09T18:07:20.442Z,36.63
2023-02-09T18:09:48.025Z,32.35
2023-02-09T18:12:21.511Z,33.72
2023-02-09T18:14:49.105Z,32.42
2023-02-09T18:17:16.805Z,36.97
2023-02-09T18:19:44.171Z,32.42
2023-02-09T18:22:19.961Z,32.40
2023-02-09T18:24:47.342Z,30.83
2023-02-09T18:27:18.233Z,33.58
2023-02-09T18:29:45.539Z,39.13
2023-02-09T18:32:16.108Z,31.48
2023-02-09T18:34:43.604Z,31.73
2023-02-09T18:37:11.160Z,32.75
2023-02-09T18:39:46.042Z,32.85
2023-02-09T18:42:15.880Z,30.25
2023-02-09T18:44:43.257Z,31.88
2023-02-09T18:47:11.604Z,32.72
2023-02-09T18:49:39.002Z,30.45
2023-02-09T18:52:06.631Z,27.63
2023-02-09T18:54:34.226Z,31.02
2023-02-09T18:57:01.901Z,30.08
2023-02-09T18:59:30.990Z,29.30
2023-02-09T19:01:59.582Z,28.42
2023-02-09T19:04:26.986Z,26.60
2023-02-09T19:06:54.677Z,28.27
2023-02-09T19:09:22.105Z,31.15
2023-02-09T19:11:49.674Z,27.65
2023-02-09T19:14:35.406Z,28.35
2023-02-09T19:17:03.509Z,26.85
2023-02-09T19:19:30.897Z,31.80
2023-02-09T19:22:00.294Z,26.15
2023-02-09T19:24:28.282Z,33.20
2023-02-09T19:26:56.158Z,26.45
2023-02-09T19:29:28.707Z,29.52
2023-02-09T19:31:56.398Z,27.13
2023-02-09T19:34:23.889Z,28.40
2023-02-09T19:36:51.645Z,27.83
2023-02-09T19:39:19.985Z,24.33
2023-02-09T19:41:49.191Z,29.23
2023-02-09T19:44:16.588Z,25.67
2023-02-09T19:46:44.489Z,26.30
2023-02-09T19:49:11.956Z,24.13
2023-02-09T19:51:39.543Z,25.27
2023-02-09T19:54:06.838Z,25.48
2023-02-09T19:56:34.552Z,21.92
2023-02-09T19:59:01.896Z,25.05
2023-02-09T20:01:31.400Z,24.67
2023-02-09T20:03:58.973Z,28.58
2023-02-09T20:06:26.728Z,25.08
2023-02-09T20:08:53.982Z,24.83
2023-02-09T20:11:21.695Z,23.38
2023-02-09T20:13:51.202Z,28.30
2023-02-09T20:16:25.343Z,25.30
2023-02-09T20:18:53.755Z,21.48
2023-02-09T20:21:23.039Z,20.35
2023-02-09T20:23:54.398Z,22.95
2023-02-09T20:26:25.219Z,21.30
2023-02-09T20:28:54.153Z,22.20
2023-02-09T20:31:24.913Z,19.08
2023-02-09T20:33:53.619Z,21.00
2023-02-09T20:36:23.298Z,21.92
2023-02-09T20:38:51.835Z,20.33
2023-02-09T20:41:19.460Z,18.92
2023-02-09T20:44:25.075Z,23.67
2023-02-09T20:46:58.362Z,21.05
2023-02-09T20:49:35.966Z,22.20
2023-02-09T20:52:03.575Z,21.20
2023-02-09T20:54:32.018Z,16.95
2023-02-09T20:56:59.799Z,18.98
2023-02-09T20:59:27.142Z,18.38
2023-02-09T21:01:54.751Z,21.35
2023-02-09T21:04:22.138Z,16.90
2023-02-09T21:06:49.753Z,14.75
2023-02-09T21:09:17.063Z,16.90
2023-02-09T21:11:44.685Z,15.68
2023-02-09T21:14:21.943Z,15.98
2023-02-09T21:16:56.385Z,21.15
2023-02-09T21:19:24.831Z,20.10
2023-02-09T21:21:52.841Z,16.73
2023-02-09T21:24:20.684Z,15.18
2023-02-09T21:26:48.335Z,15.23
2023-02-09T21:29:15.723Z,17.75
2023-02-09T21:31:44.743Z,18.17
2023-02-09T21:34:16.772Z,19.92
2023-02-09T21:36:44.645Z,16.13
2023-02-09T21:39:12.030Z,19.27
2023-02-09T21:41:58.245Z,19.75
2023-02-09T21:44:25.852Z,17.15
2023-02-09T21:46:54.141Z,16.75
2023-02-09T21:49:22.073Z,19.73
2023-02-09T21:51:49.682Z,21.48
2023-02-09T21:54:18.214Z,15.93
2023-02-09T21:56:45.787Z,17.33
2023-02-09T21:59:13.165Z,17.77
2023-02-09T22:01:42.593Z,16.83
2023-02-09T22:04:10.015Z,19.63
2023-02-09T22:06:37.631Z,18.77
2023-02-09T22:09:06.413Z,20.20
2023-02-09T22:11:34.644Z,17.75
2023-02-09T22:14:02.298Z,17.25
2023-02-09T22:16:30.266Z,17.80
2023-02-09T22:18:59.073Z,18.58
2023-02-09T22:21:26.754Z,21.35
2023-02-09T22:23:54.412Z,23.95
2023-02-09T22:26:22.389Z,18.27
2023-02-09T22:28:49.921Z,17.60
2023-02-09T22:31:21.608Z,19.33
2023-02-09T22:33:54.036Z,14.00
2023-02-09T22:36:23.425Z,18.83
2023-02-09T22:38:51.704Z,16.88
2023-02-09T22:41:21.864Z,18.55
2023-02-09T22:43:56.833Z,17.75
2023-02-09T22:46:27.573Z,20.70
2023-02-09T22:49:00.654Z,22.00
2023-02-09T22:51:30.895Z,16.08
2023-02-09T22:53:59.826Z,19.80
2023-02-09T22:56:28.305Z,18.90
2023-02-09T22:58:57.940Z,20.58
2023-02-09T23:01:25.892Z,19.20
2023-02-09T23:03:54.198Z,22.27
2023-02-09T23:06:24.640Z,18.48
2023-02-09T23:09:00.619Z,22.33
2023-02-09T23:11:30.407Z,19.88
2023-02-09T23:14:14.079Z,24.27
2023-02-09T23:16:43.292Z,19.90
2023-02-09T23:19:16.310Z,20.13
2023-02-09T23:21:46.559Z,19.75
2023-02-09T23:24:16.203Z,23.02
2023-02-09T23:26:44.804Z,19.23
2023-02-09T23:29:14.886Z,25.42
2023-02-09T23:31:44.022Z,18.45
2023-02-09T23:34:20.236Z,20.88
2023-02-09T23:36:47.902Z,19.65
2023-02-09T23:39:17.465Z,21.70
2023-02-09T23:41:45.611Z,19.75
2023-02-09T23:44:13.224Z,18.98
2023-02-09T23:46:40.896Z,19.00
2023-02-09T23:49:08.321Z,23.38
2023-02-09T23:51:36.644Z,19.23
2023-02-09T23:54:06.587Z,23.80
2023-02-09T23:56:37.391Z,21.88
2023-02-09T23:59:07.053Z,25.23
